Time;durP1;ratioP1;P1;durP2;ratioP2;P2;SDS_P1;SDS_P2;PMS_P1;PMS_P2;Temp;Humidity;BMP_temperature;BMP_pressure;BME280_temperature;BME280_humidity;BME280_pressure;Samples;Min_cycle;Max_cycle;Signal;HPM_P1;HPM_P2
2023/07/06 00:02:09;;;;;;;10.60;6.45;;;;;;;21.67;100.00;100133.56;5587246;31;34434;-69
2023/07/06 00:05:12;;;;;;;9.68;6.68;;;;;;;21.54;100.00;100138.47;5587215;31;34699;-69
2023/07/06 00:08:16;;;;;;;10.40;5.90;;;;;;;21.41;100.00;100138.78;5587234;31;33499;-70
2023/07/06 00:11:20;;;;;;;8.60;5.78;;;;;;;21.35;100.00;100142.47;5586192;31;33836;-69
2023/07/06 00:14:24;;;;;;;9.38;6.50;;;;;;;21.37;100.00;100143.03;5586411;31;35249;-69
2023/07/06 00:17:27;;;;;;;9.90;6.28;;;;;;;21.25;100.00;100149.31;5587305;31;34344;-70
2023/07/06 00:20:32;;;;;;;8.98;6.47;;;;;;;21.13;100.00;100145.00;5587321;31;34489;-71
2023/07/06 00:23:35;;;;;;;11.15;6.53;;;;;;;20.99;100.00;100147.19;5586966;31;34456;-71
2023/07/06 00:26:37;;;;;;;12.20;6.72;;;;;;;20.94;100.00;100144.41;5576564;31;33588;-70
2023/07/06 00:29:56;;;;;;;13.60;6.93;;;;;;;20.96;100.00;100146.84;5587056;31;34373;-70
2023/07/06 00:32:58;;;;;;;8.55;6.25;;;;;;;20.96;100.00;100142.25;5587155;31;34297;-71
2023/07/06 00:36:03;;;;;;;10.50;6.68;;;;;;;20.91;100.00;100134.09;5587188;31;33721;-71
2023/07/06 00:39:05;;;;;;;10.80;6.30;;;;;;;20.92;100.00;100148.38;5587011;31;34126;-71
2023/07/06 00:42:15;;;;;;;12.50;6.45;;;;;;;20.85;100.00;100142.31;5586904;31;35099;-71
2023/07/06 00:45:18;;;;;;;10.27;6.55;;;;;;;20.86;100.00;100136.69;5586935;31;33729;-71
2023/07/06 00:48:28;;;;;;;12.57;6.03;;;;;;;20.88;100.00;100142.66;5586886;31;34797;-71
2023/07/06 00:51:37;;;;;;;11.43;6.18;;;;;;;20.87;100.00;100129.41;5586120;31;33954;-71
2023/07/06 00:54:42;;;;;;;8.23;5.85;;;;;;;20.78;100.00;100139.75;5585874;31;33953;-71
2023/07/06 00:57:51;;;;;;;9.55;6.18;;;;;;;20.76;100.00;100137.31;5586781;31;33754;-71
2023/07/06 01:00:58;;;;;;;7.87;6.45;;;;;;;20.81;100.00;100134.72;5586689;31;33729;-71
2023/07/06 01:04:04;;;;;;;8.98;6.03;;;;;;;20.88;100.00;100136.44;5586592;31;34712;-71
2023/07/06 01:07:07;;;;;;;8.18;5.90;;;;;;;20.90;100.00;100137.84;5586543;31;33804;-71
2023/07/06 01:10:10;;;;;;;9.18;5.65;;;;;;;20.94;100.00;100133.59;5586541;31;33785;-71
2023/07/06 01:13:13;;;;;;;12.48;5.75;;;;;;;20.88;100.00;100129.16;5586241;31;34029;-71
2023/07/06 01:16:49;;;;;;;11.35;6.10;;;;;;;20.85;100.00;100132.34;5586454;31;33665;-70
2023/07/06 01:19:54;;;;;;;8.27;5.57;;;;;;;20.86;100.00;100135.87;5586397;31;34546;-71
2023/07/06 01:23:34;;;;;;;11.05;5.60;;;;;;;20.92;100.00;100133.00;5586359;31;34587;-71
2023/07/06 01:27:07;;;;;;;9.70;5.70;;;;;;;20.90;100.00;100137.84;5567413;31;34849;-71
2023/07/06 01:30:28;;;;;;;7.82;5.40;;;;;;;20.87;100.00;100132.09;5581517;31;34335;-71
2023/07/06 01:33:47;;;;;;;7.37;5.15;;;;;;;20.79;100.00;100127.91;5585273;31;34556;-71
2023/07/06 01:36:59;;;;;;;13.38;5.87;;;;;;;20.79;100.00;100127.91;5585314;31;33642;-71
2023/07/06 01:40:09;;;;;;;9.20;5.25;;;;;;;20.78;100.00;100131.66;5586219;31;33664;-71
2023/07/06 01:43:13;;;;;;;7.82;5.45;;;;;;;20.71;100.00;100122.91;5586011;31;34709;-71
2023/07/06 01:46:16;;;;;;;6.85;5.25;;;;;;;20.59;100.00;100117.56;5585746;31;34030;-71
2023/07/06 01:49:20;;;;;;;7.18;5.22;;;;;;;20.65;100.00;100113.91;5586589;31;33585;-71
2023/07/06 01:52:36;;;;;;;6.57;5.07;;;;;;;20.73;100.00;100124.31;5588484;31;33675;-71
2023/07/06 01:55:44;;;;;;;7.75;4.80;;;;;;;20.66;100.00;100120.12;5588468;31;34451;-71
2023/07/06 01:58:59;;;;;;;7.15;4.68;;;;;;;20.65;100.00;100119.31;5588382;31;33909;-70
2023/07/06 02:02:07;;;;;;;8.45;4.95;;;;;;;20.67;100.00;100119.06;5588381;31;35147;-71
2023/07/06 02:05:13;;;;;;;8.65;4.78;;;;;;;20.66;100.00;100117.44;5588206;31;34386;-70
2023/07/06 02:08:17;;;;;;;7.75;4.72;;;;;;;20.55;100.00;100121.78;5588297;31;33913;-70
2023/07/06 02:11:24;;;;;;;8.40;4.70;;;;;;;20.57;100.00;100122.37;5588511;31;33911;-70
2023/07/06 02:14:27;;;;;;;7.55;4.60;;;;;;;20.42;100.00;100114.00;5588245;31;34577;-71
2023/07/06 02:17:30;;;;;;;6.62;4.60;;;;;;;20.27;100.00;100116.34;5588089;31;34137;-71
2023/07/06 02:20:34;;;;;;;9.45;4.37;;;;;;;20.10;100.00;100123.47;5588232;31;33612;-69
2023/07/06 02:23:39;;;;;;;6.07;4.20;;;;;;;20.01;100.00;100116.81;5588547;31;33691;-69
2023/07/06 02:26:44;;;;;;;7.20;4.30;;;;;;;19.98;100.00;100126.22;5588265;31;33678;-70
2023/07/06 02:29:47;;;;;;;8.13;3.90;;;;;;;19.80;100.00;100131.72;5588163;31;34794;-69
2023/07/06 02:32:50;;;;;;;7.55;4.18;;;;;;;19.75;100.00;100143.16;5588095;31;34654;-70
2023/07/06 02:35:52;;;;;;;13.95;4.65;;;;;;;19.70;100.00;100143.06;5588106;31;33640;-71
2023/07/06 02:38:57;;;;;;;8.88;4.60;;;;;;;19.64;100.00;100154.75;5588064;31;34410;-71
2023/07/06 02:41:59;;;;;;;7.50;4.53;;;;;;;19.62;100.00;100164.09;5588029;31;34316;-69
2023/07/06 02:45:04;;;;;;;8.10;4.43;;;;;;;19.54;100.00;100154.50;5588236;31;33651;-70
2023/07/06 02:48:06;;;;;;;5.75;4.12;;;;;;;19.59;100.00;100156.50;5587853;31;34822;-70
2023/07/06 02:51:09;;;;;;;5.87;4.20;;;;;;;19.58;100.00;100161.06;5587809;31;35134;-71
2023/07/06 02:54:15;;;;;;;5.82;4.18;;;;;;;19.52;100.00;100161.97;5587084;31;34387;-68
2023/07/06 02:57:18;;;;;;;7.32;4.22;;;;;;;19.49;100.00;100165.97;5586955;31;35255;-70
2023/07/06 03:00:22;;;;;;;8.70;4.30;;;;;;;19.36;100.00;100154.56;5587281;31;34259;-71
2023/07/06 03:03:26;;;;;;;8.73;4.03;;;;;;;19.37;100.00;100158.87;5587830;31;33605;-69
2023/07/06 03:06:30;;;;;;;8.80;4.25;;;;;;;19.31;100.00;100162.50;5588029;31;33689;-70
2023/07/06 03:09:33;;;;;;;8.10;4.07;;;;;;;19.38;100.00;100169.41;5587897;31;33779;-71
2023/07/06 03:12:39;;;;;;;8.38;4.20;;;;;;;19.37;100.00;100166.94;5586817;31;34647;-69
2023/07/06 03:15:42;;;;;;;5.97;3.60;;;;;;;19.35;100.00;100164.50;5587765;31;33503;-70
2023/07/06 03:18:45;;;;;;;8.77;4.20;;;;;;;19.39;100.00;100154.91;5587244;31;34549;-71
2023/07/06 03:21:48;;;;;;;5.85;3.80;;;;;;;19.47;100.00;100157.28;5587581;31;33974;-71
2023/07/06 03:24:50;;;;;;;6.93;3.65;;;;;;;19.41;100.00;100168.94;5586693;31;33785;-70
2023/07/06 03:27:53;;;;;;;10.57;4.10;;;;;;;19.51;100.00;100179.97;5587881;31;33600;-70
2023/07/06 03:30:57;;;;;;;5.57;3.78;;;;;;;19.41;100.00;100168.12;5587453;31;33751;-69
2023/07/06 03:34:01;;;;;;;6.82;3.65;;;;;;;19.41;100.00;100173.53;5587563;31;33865;-71
2023/07/06 03:37:04;;;;;;;7.53;3.80;;;;;;;19.47;100.00;100180.69;5587796;31;33758;-70
2023/07/06 03:40:10;;;;;;;7.40;4.10;;;;;;;19.49;100.00;100190.19;5587439;31;33913;-71
2023/07/06 03:43:15;;;;;;;8.50;5.70;;;;;;;19.72;100.00;100193.94;5587426;31;33753;-71
2023/07/06 03:46:18;;;;;;;9.23;3.97;;;;;;;19.63;100.00;100184.56;5586662;31;33683;-69
2023/07/06 03:49:21;;;;;;;6.75;3.72;;;;;;;19.68;100.00;100193.59;5587114;31;34783;-69
2023/07/06 03:52:24;;;;;;;7.37;4.00;;;;;;;19.59;100.00;100189.63;5586135;31;33804;-69
2023/07/06 03:55:27;;;;;;;6.45;3.90;;;;;;;19.56;100.00;100197.34;5587249;31;35097;-70
2023/07/06 03:58:30;;;;;;;6.18;3.62;;;;;;;19.57;100.00;100201.62;5587076;31;33603;-67
2023/07/06 04:01:32;;;;;;;7.07;3.67;;;;;;;19.61;100.00;100206.34;5587232;31;34001;-70
2023/07/06 04:04:36;;;;;;;6.15;3.62;;;;;;;19.58;100.00;100208.66;5587017;31;34940;-68
2023/07/06 04:07:40;;;;;;;9.20;3.50;;;;;;;19.57;100.00;100207.03;5587251;31;33570;-69
2023/07/06 04:10:43;;;;;;;8.68;3.45;;;;;;;19.46;100.00;100211.34;5584592;31;34397;-68
2023/07/06 04:13:46;;;;;;;9.55;3.62;;;;;;;19.56;100.00;100216.16;5583008;31;33954;-68
2023/07/06 04:16:49;;;;;;;6.32;3.45;;;;;;;19.54;100.00;100221.78;5587065;31;34341;-68
2023/07/06 04:19:53;;;;;;;9.02;3.53;;;;;;;19.57;100.00;100220.47;5587105;31;33826;-69
2023/07/06 04:22:57;;;;;;;6.68;3.45;;;;;;;19.44;100.00;100216.13;5587025;31;33849;-69
2023/07/06 04:26:00;;;;;;;6.68;3.30;;;;;;;19.51;100.00;100223.03;5586388;31;33568;-68
2023/07/06 04:29:04;;;;;;;5.12;2.85;;;;;;;19.54;100.00;100229.84;5586857;31;33916;-69
2023/07/06 04:32:07;;;;;;;5.78;3.30;;;;;;;19.50;100.00;100242.94;5586931;31;34480;-67
2023/07/06 04:35:14;;;;;;;8.10;2.80;;;;;;;19.45;100.00;100242.81;5585765;31;34498;-70
2023/07/06 04:38:17;;;;;;;7.03;3.00;;;;;;;19.47;100.00;100239.88;5566254;32;34125;-70
2023/07/06 04:41:22;;;;;;;11.52;3.25;;;;;;;19.57;100.00;100228.56;5574872;31;33844;-69
2023/07/06 04:44:24;;;;;;;10.00;2.80;;;;;;;19.63;100.00;100236.53;5574314;31;33918;-67
2023/07/06 04:47:28;;;;;;;8.00;3.17;;;;;;;19.74;100.00;100222.28;5580534;31;34097;-67
2023/07/06 04:50:31;;;;;;;6.78;2.72;;;;;;;19.80;100.00;100237.50;5579140;31;34199;-70
2023/07/06 04:53:37;;;;;;;10.38;3.35;;;;;;;19.68;100.00;100241.22;5578417;31;34641;-70
2023/07/06 04:56:41;;;;;;;5.50;3.10;;;;;;;19.85;100.00;100236.81;5575165;31;33863;-69
2023/07/06 04:59:44;;;;;;;9.18;3.05;;;;;;;19.99;100.00;100226.66;5569474;31;34418;-69
2023/07/06 05:02:47;;;;;;;7.95;3.20;;;;;;;20.05;100.00;100233.78;5569846;31;34417;-68
2023/07/06 05:05:50;;;;;;;6.78;3.22;;;;;;;20.15;100.00;100237.53;5596462;31;34374;-70
2023/07/06 05:08:53;;;;;;;5.87;3.05;;;;;;;19.85;100.00;100240.31;5582924;31;34138;-70
2023/07/06 05:11:56;;;;;;;6.78;3.05;;;;;;;19.93;100.00;100239.19;5570285;31;33575;-70
2023/07/06 05:14:58;;;;;;;11.00;3.30;;;;;;;19.76;100.00;100235.50;5586645;31;33606;-69
2023/07/06 05:18:01;;;;;;;7.65;2.95;;;;;;;19.79;100.00;100233.19;5585957;31;34612;-69
2023/07/06 05:21:04;;;;;;;17.23;3.25;;;;;;;19.78;100.00;100234.22;5585713;31;34278;-70
2023/07/06 05:24:08;;;;;;;8.82;3.45;;;;;;;19.89;100.00;100246.91;5585410;31;34468;-71
2023/07/06 05:27:11;;;;;;;8.30;3.30;;;;;;;19.73;100.00;100244.06;5586423;31;33856;-70
2023/07/06 05:30:15;;;;;;;7.40;3.15;;;;;;;19.65;100.00;100249.78;5586149;31;33744;-70
2023/07/06 05:33:22;;;;;;;8.88;3.22;;;;;;;19.58;100.00;100251.72;5585844;31;33442;-70
2023/07/06 05:36:25;;;;;;;7.53;3.10;;;;;;;19.74;100.00;100262.66;5585521;31;33537;-70
2023/07/06 05:39:28;;;;;;;7.10;2.90;;;;;;;19.71;100.00;100273.06;5585781;31;34509;-70
2023/07/06 05:42:31;;;;;;;9.13;3.10;;;;;;;19.72;100.00;100275.53;5585269;31;33589;-70
2023/07/06 05:45:33;;;;;;;10.65;3.22;;;;;;;19.74;100.00;100278.81;5573468;31;34341;-69
2023/07/06 05:48:36;;;;;;;7.87;3.03;;;;;;;19.99;100.00;100277.81;5567898;31;34419;-69
2023/07/06 05:51:39;;;;;;;5.68;3.12;;;;;;;19.97;100.00;100278.03;5584204;31;33824;-70
2023/07/06 05:54:42;;;;;;;8.85;3.30;;;;;;;19.73;100.00;100279.88;5577930;31;33402;-69
2023/07/06 05:57:45;;;;;;;7.10;3.10;;;;;;;19.73;100.00;100268.28;5576705;31;33956;-67
2023/07/06 06:00:48;;;;;;;8.57;3.12;;;;;;;19.48;100.00;100271.13;5578180;31;33931;-69
2023/07/06 06:03:52;;;;;;;7.05;3.30;;;;;;;19.20;100.00;100268.97;5564667;32;34467;-69
2023/07/06 06:06:56;;;;;;;5.45;3.28;;;;;;;18.96;100.00;100273.41;5565777;32;34866;-69
2023/07/06 06:10:03;;;;;;;7.55;2.97;;;;;;;18.65;100.00;100270.84;5565409;32;34518;-69
2023/07/06 06:13:05;;;;;;;7.43;3.65;;;;;;;18.39;100.00;100276.47;5576842;31;34276;-69
2023/07/06 06:16:11;;;;;;;6.12;3.72;;;;;;;18.34;100.00;100287.06;5583770;31;33677;-69
2023/07/06 06:19:15;;;;;;;7.90;3.62;;;;;;;18.21;100.00;100293.34;5580910;31;33927;-68
2023/07/06 06:22:19;;;;;;;10.98;4.20;;;;;;;18.20;100.00;100311.31;5572891;31;33841;-68
2023/07/06 06:25:22;;;;;;;5.55;3.35;;;;;;;18.36;100.00;100327.94;5575530;31;34527;-68
2023/07/06 06:28:25;;;;;;;8.25;3.92;;;;;;;18.33;100.00;100334.59;5565472;32;34272;-68
2023/07/06 06:31:29;;;;;;;6.90;3.55;;;;;;;18.40;100.00;100329.97;5564328;32;34571;-69
2023/07/06 06:34:32;;;;;;;9.77;3.62;;;;;;;18.68;100.00;100334.94;5571319;31;34548;-69
2023/07/06 06:37:35;;;;;;;11.65;3.70;;;;;;;18.75;100.00;100337.53;5581548;31;33608;-69
2023/07/06 06:40:38;;;;;;;8.20;3.90;;;;;;;18.75;100.00;100326.78;5566999;32;33622;-69
2023/07/06 06:43:44;;;;;;;8.70;3.47;;;;;;;18.72;100.00;100343.34;5567821;32;34269;-69
2023/07/06 06:46:47;;;;;;;5.50;3.53;;;;;;;18.74;100.00;100341.25;5567763;32;33812;-69
2023/07/06 06:49:50;;;;;;;11.20;3.95;;;;;;;18.81;100.00;100340.16;5567626;32;34529;-69
2023/07/06 06:52:52;;;;;;;11.00;3.92;;;;;;;18.90;100.00;100335.31;5568134;32;33843;-67
2023/07/06 06:55:55;;;;;;;14.52;4.10;;;;;;;19.24;100.00;100331.19;5567549;32;34605;-69
2023/07/06 06:58:59;;;;;;;8.73;3.70;;;;;;;19.33;100.00;100332.53;5566898;32;33780;-69
2023/07/06 07:02:04;;;;;;;11.12;3.85;;;;;;;19.43;100.00;100340.91;5567790;32;33808;-69
2023/07/06 07:05:15;;;;;;;8.68;3.72;;;;;;;19.87;100.00;100334.31;5585149;31;32833;-67
2023/07/06 07:08:18;;;;;;;5.62;3.65;;;;;;;20.11;100.00;100333.34;5587071;31;33309;-69
2023/07/06 07:11:21;;;;;;;7.22;3.67;;;;;;;20.01;100.00;100335.75;5583719;31;33955;-70
2023/07/06 07:14:30;;;;;;;9.70;3.60;;;;;;;20.11;100.00;100319.03;5587067;31;33744;-70
2023/07/06 07:17:33;;;;;;;12.68;4.00;;;;;;;20.56;100.00;100320.19;5586492;31;32675;-68
2023/07/06 07:20:36;;;;;;;7.00;3.75;;;;;;;20.54;100.00;100322.28;5587428;31;33990;-69
2023/07/06 07:23:41;;;;;;;7.78;3.42;;;;;;;21.03;100.00;100322.84;5587204;31;34491;-69
2023/07/06 07:26:45;;;;;;;7.50;3.78;;;;;;;20.98;100.00;100322.72;5587151;31;34788;-69
2023/07/06 07:29:49;;;;;;;8.18;4.00;;;;;;;21.28;100.00;100314.47;5586114;31;34173;-69
2023/07/06 07:32:52;;;;;;;9.57;3.87;;;;;;;22.09;100.00;100316.84;5587230;31;33680;-70
2023/07/06 07:35:58;;;;;;;7.68;3.72;;;;;;;22.32;100.00;100319.38;5586443;31;34375;-70
2023/07/06 07:39:01;;;;;;;7.07;3.55;;;;;;;23.18;100.00;100311.72;5587750;31;34368;-68
2023/07/06 07:42:04;;;;;;;6.20;3.42;;;;;;;23.92;100.00;100304.69;5587244;31;33840;-71
2023/07/06 07:45:07;;;;;;;11.65;3.55;;;;;;;24.06;100.00;100318.66;5586941;31;33676;-68
2023/07/06 07:48:10;;;;;;;6.57;3.10;;;;;;;24.22;100.00;100325.84;5587128;31;33744;-69
2023/07/06 07:51:17;;;;;;;6.25;3.05;;;;;;;24.92;100.00;100322.84;5578924;31;249279;-71
2023/07/06 07:54:21;;;;;;;16.37;3.90;;;;;;;24.40;100.00;100324.66;5586951;31;34718;-70
2023/07/06 07:57:23;;;;;;;14.50;4.00;;;;;;;23.69;100.00;100313.12;5586107;31;35057;-72
2023/07/06 08:00:26;;;;;;;7.07;3.40;;;;;;;22.57;100.00;100321.66;5586288;31;34496;-72
2023/07/06 08:03:29;;;;;;;8.63;3.47;;;;;;;22.93;100.00;100317.63;5586621;31;34528;-71
2023/07/06 08:06:32;;;;;;;8.43;3.58;;;;;;;22.96;100.00;100315.22;5586835;31;34031;-72
2023/07/06 08:09:35;;;;;;;10.82;3.87;;;;;;;22.76;100.00;100312.22;5587125;31;34949;-70
2023/07/06 08:12:38;;;;;;;11.88;3.40;;;;;;;23.21;100.00;100316.62;5586945;31;34918;-71
2023/07/06 08:15:41;;;;;;;6.50;3.08;;;;;;;23.25;100.00;100307.72;5583866;31;33828;-71
2023/07/06 08:18:44;;;;;;;5.82;3.25;;;;;;;23.46;100.00;100306.13;5586693;31;34370;-72
2023/07/06 08:21:47;;;;;;;7.90;3.12;;;;;;;24.01;100.00;100308.56;5586728;31;33884;-71
2023/07/06 08:25:10;;;;;;;6.37;3.10;;;;;;;24.39;100.00;100314.87;5586779;31;35014;-70
2023/07/06 08:28:20;;;;;;;7.07;3.20;;;;;;;24.30;100.00;100308.31;5589139;31;34840;-71
2023/07/06 08:31:24;;;;;;;7.75;3.17;;;;;;;24.28;100.00;100318.56;5600837;31;33618;-71
2023/07/06 08:34:27;;;;;;;5.45;3.20;;;;;;;24.76;96.82;100318.37;5594771;31;34058;-70
2023/07/06 08:37:30;;;;;;;6.55;2.70;;;;;;;24.51;95.05;100308.16;5602752;31;33942;-71
2023/07/06 08:40:35;;;;;;;4.93;3.17;;;;;;;26.58;81.29;100309.88;5600256;31;33966;-73
2023/07/06 08:43:39;;;;;;;9.57;3.42;;;;;;;26.52;74.42;100308.28;5586599;31;34079;-71
2023/07/06 08:46:48;;;;;;;8.93;2.75;;;;;;;28.66;64.64;100315.78;5586495;31;34465;-72
2023/07/06 08:49:51;;;;;;;5.70;2.78;;;;;;;30.73;55.19;100330.44;5585753;31;33770;-70
2023/07/06 08:52:56;;;;;;;5.97;3.12;;;;;;;29.95;54.83;100323.81;5586223;31;34595;-73
2023/07/06 08:56:03;;;;;;;6.03;2.85;;;;;;;28.85;56.20;100326.84;5586052;31;34089;-72
2023/07/06 08:59:14;;;;;;;7.30;2.75;;;;;;;30.53;53.07;100324.22;5585220;31;34155;-72
2023/07/06 09:02:18;;;;;;;7.87;2.70;;;;;;;29.05;55.34;100318.41;5586051;31;33953;-71
2023/07/06 09:05:21;;;;;;;9.10;3.10;;;;;;;28.51;59.44;100324.94;5585445;31;34057;-73
2023/07/06 09:08:25;;;;;;;8.20;2.92;;;;;;;28.55;57.07;100302.56;5585815;31;34088;-71
2023/07/06 09:11:33;;;;;;;5.60;2.60;;;;;;;28.83;58.41;100302.56;5586007;31;34156;-71
2023/07/06 09:14:41;;;;;;;5.60;2.60;;;;;;;29.11;55.10;100297.31;5586181;31;33919;-72
2023/07/06 09:17:50;;;;;;;5.70;2.58;;;;;;;30.51;51.18;100306.44;5586090;31;34609;-72
2023/07/06 09:20:53;;;;;;;;;;;;;;;29.51;52.57;100310.47;5582117;31;33712;-71
2023/07/06 09:23:57;;;;;;;10.52;3.10;;;;;;;29.26;58.74;100297.13;5586182;31;34702;-72
2023/07/06 09:27:07;;;;;;;8.05;3.10;;;;;;;28.85;59.63;100294.87;5575351;31;33882;-70
2023/07/06 09:30:23;;;;;;;8.57;3.50;;;;;;;29.32;59.60;100305.00;5595450;31;33801;-70
2023/07/06 09:33:26;;;;;;;14.32;3.25;;;;;;;26.90;73.93;100310.38;5566892;31;32252;-72
2023/07/06 09:36:31;;;;;;;10.98;3.47;;;;;;;27.57;70.49;100303.56;5568601;31;33604;-71
2023/07/06 09:39:33;;;;;;;5.10;3.08;;;;;;;28.65;63.86;100302.47;5566151;32;33914;-72
2023/07/06 09:42:36;;;;;;;7.35;3.15;;;;;;;28.47;61.94;100287.59;5583033;31;33865;-71
2023/07/06 09:45:39;;;;;;;5.30;3.22;;;;;;;28.64;61.44;100298.91;5569362;31;33890;-72
2023/07/06 09:48:42;;;;;;;4.70;2.70;;;;;;;29.31;60.71;100308.81;5565772;32;33803;-71
2023/07/06 09:51:55;;;;;;;5.05;2.70;;;;;;;29.65;57.53;100302.34;5575275;31;34960;-70
2023/07/06 09:55:07;;;;;;;4.95;2.78;;;;;;;29.80;57.04;100308.41;5579935;31;33794;-71
2023/07/06 09:58:20;;;;;;;7.78;3.20;;;;;;;29.01;58.25;100302.88;5566087;31;33999;-70
2023/07/06 10:01:48;;;;;;;6.68;3.20;;;;;;;28.35;60.24;100309.84;5584267;31;33551;-71
2023/07/06 10:05:01;;;;;;;5.12;2.90;;;;;;;27.50;59.63;100309.31;5585116;31;33900;-72
2023/07/06 10:08:12;;;;;;;4.93;2.80;;;;;;;28.81;54.99;100312.13;5565014;31;33848;-70
2023/07/06 10:11:39;;;;;;;13.32;3.10;;;;;;;28.20;53.83;100307.25;5568348;31;33974;-71
2023/07/06 10:14:51;;;;;;;9.85;3.08;;;;;;;26.42;56.08;100317.25;5562892;31;35227;-69
2023/07/06 10:18:21;;;;;;;5.50;3.12;;;;;;;26.88;54.97;100319.91;5578122;31;33962;-70
2023/07/06 10:21:40;;;;;;;5.65;3.00;;;;;;;27.17;54.59;100310.00;5568100;32;34249;-69
2023/07/06 10:24:53;;;;;;;5.15;3.08;;;;;;;28.00;53.41;100304.66;5554335;32;33928;-68
2023/07/06 10:28:16;;;;;;;5.68;2.87;;;;;;;27.88;58.19;100306.94;5567005;32;34048;-69
2023/07/06 10:31:25;;;;;;;7.72;3.25;;;;;;;29.19;54.86;100305.66;5567990;32;34018;-68
2023/07/06 10:34:32;;;;;;;;;;;;;;;29.15;57.30;100310.09;5568203;32;34515;-69
2023/07/06 10:37:35;;;;;;;5.95;3.05;;;;;;;30.45;52.31;100318.59;5570272;31;34279;-71
2023/07/06 10:40:38;;;;;;;7.28;3.30;;;;;;;31.35;48.64;100318.78;5584191;31;34456;-70
2023/07/06 10:43:43;;;;;;;9.15;3.47;;;;;;;28.60;58.06;100327.91;5576334;31;33817;-71
2023/07/06 10:46:57;;;;;;;6.47;3.60;;;;;;;29.14;56.91;100316.69;5586255;31;33819;-70
2023/07/06 10:50:28;;;;;;;6.35;3.58;;;;;;;30.13;53.62;100312.00;5584651;31;33902;-70
2023/07/06 10:53:36;;;;;;;7.12;3.42;;;;;;;30.80;51.10;100317.97;5578301;31;34014;-69
2023/07/06 10:56:42;;;;;;;7.47;3.67;;;;;;;31.40;50.10;100313.19;5587691;31;33796;-69
2023/07/06 10:59:49;;;;;;;8.45;3.60;;;;;;;32.22;47.76;100314.91;5587342;31;34200;-71
2023/07/06 11:02:55;;;;;;;10.67;3.17;;;;;;;31.29;47.88;100311.78;5587307;31;33928;-71
2023/07/06 11:06:10;;;;;;;5.03;2.92;;;;;;;32.06;44.61;100310.88;5586791;31;33879;-68
2023/07/06 11:09:16;;;;;;;6.78;3.00;;;;;;;33.59;43.02;100318.22;5587709;31;33704;-71
2023/07/06 11:12:20;;;;;;;4.20;2.97;;;;;;;35.28;38.72;100317.72;5599619;31;34070;-71
2023/07/06 11:15:41;;;;;;;6.65;2.87;;;;;;;35.40;37.62;100312.28;5604822;31;32643;-71
2023/07/06 11:18:48;;;;;;;5.18;2.97;;;;;;;35.25;37.40;100308.16;5577082;31;34436;-72
2023/07/06 11:21:55;;;;;;;10.20;2.80;;;;;;;35.10;37.40;100299.66;5586157;31;34629;-70
2023/07/06 11:25:05;;;;;;;5.45;2.80;;;;;;;37.41;34.16;100309.53;5587158;31;33972;-71
2023/07/06 11:28:12;;;;;;;5.40;2.95;;;;;;;33.51;39.55;100294.25;5603101;31;33842;-70
2023/07/06 11:31:34;;;;;;;4.82;3.15;;;;;;;31.80;42.50;100291.47;5606082;31;33836;-71
2023/07/06 11:34:43;;;;;;;5.97;2.87;;;;;;;30.29;44.27;100290.69;5600265;31;34007;-71
2023/07/06 11:37:45;;;;;;;6.28;3.00;;;;;;;28.77;48.72;100287.31;5589843;31;33514;-71
2023/07/06 11:41:10;;;;;;;5.47;2.85;;;;;;;30.44;45.29;100282.19;5578647;31;33870;-67
2023/07/06 11:44:41;;;;;;;12.48;3.00;;;;;;;32.85;41.68;100289.06;5567147;31;33633;-66
2023/07/06 11:48:14;;;;;;;6.68;3.05;;;;;;;34.60;36.21;100286.56;5574341;31;33763;-70
2023/07/06 11:51:21;;;;;;;8.43;3.00;;;;;;;34.32;37.09;100290.88;5580315;31;33813;-71
2023/07/06 11:54:43;;;;;;;8.98;3.08;;;;;;;33.33;37.90;100297.31;5586193;31;33788;-66
2023/07/06 11:58:28;;;;;;;4.80;2.80;;;;;;;34.62;36.25;100295.28;5585419;31;34959;-72
2023/07/06 12:01:46;;;;;;;5.65;2.60;;;;;;;35.07;35.51;100289.25;5586069;31;33136;-71
2023/07/06 12:04:50;;;;;;;3.90;2.58;;;;;;;37.20;32.17;100298.59;5578541;31;33660;-69
2023/07/06 12:07:58;;;;;;;4.47;2.60;;;;;;;36.10;32.05;100294.03;5605164;31;33735;-69
2023/07/06 12:11:12;;;;;;;5.93;2.70;;;;;;;37.49;30.93;100286.44;5607033;31;34106;-70
2023/07/06 12:14:20;;;;;;;2.92;2.40;;;;;;;37.28;31.39;100299.62;5606266;31;34587;-69
2023/07/06 12:17:23;;;;;;;3.70;2.72;;;;;;;35.08;34.44;100288.13;5605369;31;33297;-70
2023/07/06 12:20:26;;;;;;;7.35;2.78;;;;;;;32.77;39.13;100274.19;5603884;31;33780;-70
2023/07/06 12:23:30;;;;;;;3.87;2.50;;;;;;;35.13;35.61;100269.44;5605226;31;34914;-72
2023/07/06 12:26:34;;;;;;;3.95;2.50;;;;;;;37.05;31.12;100268.03;5599391;31;33287;-71
2023/07/06 12:29:38;;;;;;;5.57;2.70;;;;;;;36.37;31.01;100276.06;5585596;31;35303;-69
2023/07/06 12:32:43;;;;;;;4.43;3.03;;;;;;;36.82;30.97;100256.66;5604699;31;33664;-69
2023/07/06 12:35:47;;;;;;;4.65;2.60;;;;;;;37.01;30.84;100257.69;5601202;31;33929;-67
2023/07/06 12:38:56;;;;;;;8.48;3.20;;;;;;;35.12;32.98;100250.47;5589053;31;34542;-70
2023/07/06 12:41:59;;;;;;;3.62;2.47;;;;;;;35.87;32.90;100248.62;5595311;31;33865;-70
2023/07/06 12:45:04;;;;;;;5.85;2.58;;;;;;;39.93;28.20;100264.91;5596862;31;33839;-70
2023/07/06 12:48:19;;;;;;;3.70;2.50;;;;;;;40.06;27.07;100259.97;5600892;31;33123;-70
2023/07/06 12:51:24;;;;;;;3.25;2.20;;;;;;;42.33;24.53;100252.16;5587364;31;35002;-68
2023/07/06 12:54:29;;;;;;;8.38;2.80;;;;;;;39.36;26.77;100251.78;5588279;31;34542;-70
2023/07/06 12:57:36;;;;;;;5.20;2.67;;;;;;;39.60;26.35;100250.72;5586553;31;33834;-69
2023/07/06 13:00:39;;;;;;;5.20;2.78;;;;;;;38.73;25.90;100248.34;5586369;31;33829;-70
2023/07/06 13:03:52;;;;;;;3.40;2.40;;;;;;;36.83;28.06;100250.00;5581448;31;34586;-69
2023/07/06 13:06:55;;;;;;;3.72;2.20;;;;;;;37.74;27.90;100248.44;5582546;31;32335;-68
2023/07/06 13:09:57;;;;;;;5.55;2.70;;;;;;;40.35;24.48;100259.34;5581022;31;33900;-70
2023/07/06 13:13:01;;;;;;;3.85;2.60;;;;;;;38.38;26.01;100251.00;5581974;31;34608;-70
2023/07/06 13:16:10;;;;;;;5.60;2.55;;;;;;;38.97;24.61;100252.88;5585452;31;33455;-70
2023/07/06 13:19:15;;;;;;;5.55;2.83;;;;;;;40.53;22.86;100245.72;5586439;31;34245;-71
2023/07/06 13:22:21;;;;;;;3.65;2.50;;;;;;;39.74;22.65;100247.44;5581172;31;34513;-69
2023/07/06 13:25:26;;;;;;;3.00;2.17;;;;;;;40.64;22.25;100248.72;5585042;31;34365;-70
2023/07/06 13:28:34;;;;;;;3.83;2.65;;;;;;;41.28;22.01;100244.13;5577833;31;33920;-71
2023/07/06 13:31:42;;;;;;;3.67;2.50;;;;;;;41.86;20.94;100238.91;5585302;31;34520;-69
2023/07/06 13:34:55;;;;;;;6.35;2.50;;;;;;;41.24;22.01;100238.53;5587910;31;34133;-69
2023/07/06 13:38:03;;;;;;;11.27;2.40;;;;;;;38.22;25.67;100237.13;5566304;32;34036;-68
2023/07/06 13:41:11;;;;;;;4.87;2.27;;;;;;;41.33;21.87;100243.81;5566087;31;34047;-70
2023/07/06 13:44:14;;;;;;;3.62;2.65;;;;;;;41.04;22.62;100242.62;5570861;31;33631;-70
2023/07/06 13:47:18;;;;;;;5.90;2.47;;;;;;;41.26;22.21;100236.16;5581778;31;33698;-70
2023/07/06 13:50:24;;;;;;;4.10;2.50;;;;;;;39.78;23.03;100238.03;5575068;31;34590;-70
2023/07/06 13:53:26;;;;;;;6.10;2.42;;;;;;;38.09;24.89;100229.25;5583396;31;34798;-70
2023/07/06 13:56:29;;;;;;;2.92;2.30;;;;;;;38.48;24.69;100228.31;5587823;31;34114;-71
2023/07/06 13:59:33;;;;;;;7.20;2.35;;;;;;;37.31;26.28;100215.94;5587669;31;34357;-70
2023/07/06 14:02:38;;;;;;;4.87;2.65;;;;;;;38.44;25.60;100219.09;5587993;31;34808;-69
2023/07/06 14:05:41;;;;;;;10.20;2.83;;;;;;;33.76;31.69;100226.63;5588120;31;34260;-70
2023/07/06 14:08:43;;;;;;;5.65;2.80;;;;;;;30.71;37.34;100223.09;5587453;31;35001;-68
2023/07/06 14:11:47;;;;;;;4.00;2.62;;;;;;;31.58;36.28;100222.88;5581822;31;34726;-70
2023/07/06 14:14:50;;;;;;;4.35;2.30;;;;;;;35.39;30.66;100236.16;5575759;31;35116;-71
2023/07/06 14:17:53;;;;;;;4.28;2.75;;;;;;;35.27;29.70;100233.37;5581610;31;34868;-70
2023/07/06 14:20:59;;;;;;;10.18;2.72;;;;;;;37.28;27.17;100235.97;5568132;32;33808;-72